Time;durP1;ratioP1;P1;durP2;ratioP2;P2;SDS_P1;SDS_P2;PMS_P1;PMS_P2;Temp;Humidity;BMP_temperature;BMP_pressure;BME280_temperature;BME280_humidity;BME280_pressure;Samples;Min_cycle;Max_cycle;Signal;HPM_P1;HPM_P2
2021/03/05 00:01:09;;;;;;;17.03;3.50;;;5.00;87.30;;;;;;5033049;28;20401;-85
2021/03/05 00:03:34;;;;;;;17.60;3.00;;;5.00;87.40;;;;;;5033891;28;20031;-86
2021/03/05 00:06:00;;;;;;;14.80;3.50;;;5.00;87.10;;;;;;5034242;28;20026;-87
2021/03/05 00:08:26;;;;;;;18.10;3.77;;;5.00;87.30;;;;;;5035409;28;20096;-86
2021/03/05 00:10:52;;;;;;;18.73;3.70;;;5.10;88.50;;;;;;5034776;28;20034;-86
2021/03/05 00:13:22;;;;;;;17.97;3.40;;;4.90;88.40;;;;;;5034017;28;20033;-86
2021/03/05 00:15:48;;;;;;;18.63;3.67;;;5.00;88.40;;;;;;5034128;28;20467;-85
2021/03/05 00:18:14;;;;;;;15.10;3.60;;;5.10;88.90;;;;;;5034046;28;20079;-86
2021/03/05 00:20:45;;;;;;;19.17;3.80;;;5.10;88.10;;;;;;5034606;28;20076;-87
2021/03/05 00:23:11;;;;;;;19.77;4.80;;;5.00;88.40;;;;;;5033760;28;20029;-86
2021/03/05 00:25:37;;;;;;;21.73;4.20;;;5.00;89.40;;;;;;5033605;28;20116;-86
2021/03/05 00:28:03;;;;;;;22.90;5.10;;;4.90;90.10;;;;;;5033468;28;20117;-86
2021/03/05 00:30:29;;;;;;;22.20;5.27;;;5.00;90.10;;;;;;5033218;28;20052;-86
2021/03/05 00:32:55;;;;;;;20.40;5.77;;;4.90;90.30;;;;;;5033503;28;20022;-86
2021/03/05 00:35:21;;;;;;;18.40;5.57;;;4.80;90.60;;;;;;5033465;28;20029;-87
2021/03/05 00:37:47;;;;;;;22.30;4.87;;;4.60;90.90;;;;;;5033336;28;20074;-86
2021/03/05 00:40:15;;;;;;;19.10;4.70;;;4.60;91.40;;;;;;5032869;28;20048;-86
2021/03/05 00:42:43;;;;;;;17.10;5.13;;;4.60;91.30;;;;;;5034664;28;20033;-86
2021/03/05 00:45:10;;;;;;;20.13;5.60;;;4.60;91.40;;;;;;5033260;28;20029;-86
2021/03/05 00:47:36;;;;;;;18.43;4.37;;;4.50;91.80;;;;;;5034635;28;20052;-86
2021/03/05 00:50:04;;;;;;;15.60;4.43;;;4.50;91.90;;;;;;5032545;28;20528;-87
2021/03/05 00:52:30;;;;;;;23.43;4.67;;;4.40;92.00;;;;;;5033207;28;20021;-86
2021/03/05 00:54:56;;;;;;;16.83;3.90;;;4.50;91.80;;;;;;5033248;28;20509;-86
2021/03/05 00:57:22;;;;;;;24.77;4.80;;;4.50;92.00;;;;;;5032931;28;20079;-87
2021/03/05 00:59:47;;;;;;;20.93;4.73;;;4.50;91.90;;;;;;5032705;28;20582;-86
2021/03/05 01:02:13;;;;;;;18.57;4.60;;;4.60;92.20;;;;;;5032840;28;20030;-87
2021/03/05 01:04:39;;;;;;;20.90;5.20;;;4.60;92.20;;;;;;5033085;28;20021;-85
2021/03/05 01:07:04;;;;;;;20.03;4.40;;;4.70;91.60;;;;;;5032792;28;20036;-85
2021/03/05 01:09:30;;;;;;;24.73;5.30;;;4.70;91.80;;;;;;5032068;28;20227;-87
2021/03/05 01:11:56;;;;;;;24.40;5.23;;;4.80;92.00;;;;;;5032789;28;20033;-86
2021/03/05 01:14:21;;;;;;;16.13;5.00;;;4.70;91.90;;;;;;5033886;28;20029;-87
2021/03/05 01:16:47;;;;;;;17.83;6.10;;;4.70;92.10;;;;;;5034318;28;20041;-85
2021/03/05 01:19:14;;;;;;;19.80;5.70;;;4.70;92.40;;;;;;5032220;28;20029;-85
2021/03/05 01:21:40;;;;;;;18.07;5.83;;;4.80;92.20;;;;;;5032908;28;20032;-86
2021/03/05 01:24:07;;;;;;;19.37;5.37;;;4.70;92.20;;;;;;5032741;28;20103;-85
2021/03/05 01:26:33;;;;;;;22.07;5.77;;;4.70;92.40;;;;;;5032807;28;20032;-87
2021/03/05 01:28:58;;;;;;;26.57;6.73;;;4.80;92.70;;;;;;5032794;28;20672;-86
2021/03/05 01:31:25;;;;;;;25.13;6.40;;;4.70;92.80;;;;;;5033960;28;20029;-87
2021/03/05 01:33:51;;;;;;;24.17;6.37;;;4.70;92.70;;;;;;5032612;28;20033;-85
2021/03/05 01:36:16;;;;;;;22.67;6.70;;;4.70;93.20;;;;;;5033568;28;20548;-86
2021/03/05 01:38:42;;;;;;;21.40;6.80;;;4.80;92.90;;;;;;5032247;28;20075;-86
2021/03/05 01:41:08;;;;;;;20.40;6.30;;;4.60;93.20;;;;;;5031830;28;20080;-85
2021/03/05 01:43:37;;;;;;;23.53;7.03;;;4.80;93.10;;;;;;5032253;28;20026;-85
2021/03/05 01:46:03;;;;;;;25.07;7.23;;;4.80;93.20;;;;;;5032297;28;20017;-84
2021/03/05 01:48:30;;;;;;;22.33;7.50;;;4.80;93.50;;;;;;5033565;28;20092;-87
2021/03/05 01:51:12;;;;;;;20.10;7.63;;;4.80;93.30;;;;;;5031583;28;20021;-86
2021/03/05 01:53:40;;;;;;;23.97;8.23;;;4.70;93.40;;;;;;5032286;28;20028;-86
2021/03/05 01:56:08;;;;;;;22.50;9.00;;;4.60;93.50;;;;;;5032057;28;20129;-86
2021/03/05 01:58:36;;;;;;;25.83;8.83;;;4.60;93.40;;;;;;5032299;28;20465;-86
2021/03/05 02:01:10;;;;;;;22.87;9.30;;;4.70;93.30;;;;;;5031340;28;20048;-85
2021/03/05 02:03:36;;;;;;;23.90;9.37;;;4.80;93.40;;;;;;5031942;28;20052;-85
2021/03/05 02:06:04;;;;;;;21.20;9.70;;;4.80;92.90;;;;;;5032892;28;20053;-86
2021/03/05 02:08:29;;;;;;;18.40;9.17;;;4.80;92.70;;;;;;5031645;28;20402;-87
2021/03/05 02:10:55;;;;;;;23.80;10.13;;;4.90;92.50;;;;;;5032529;28;20021;-87
2021/03/05 02:13:22;;;;;;;20.37;9.83;;;4.70;92.60;;;;;;5032947;28;20095;-86
2021/03/05 02:15:48;;;;;;;19.70;10.10;;;4.80;92.80;;;;;;5031557;28;20033;-87
2021/03/05 02:18:40;;;;;;;22.37;10.20;;;4.80;92.60;;;;;;5031775;28;20068;-86
2021/03/05 02:21:41;;;;;;;19.60;10.10;;;4.90;92.30;;;;;;5031064;28;20025;-87
2021/03/05 02:24:49;;;;;;;22.57;11.70;;;4.80;92.20;;;;;;5032812;28;20043;-86
2021/03/05 02:27:33;;;;;;;24.55;11.75;;;4.80;92.20;;;;;;4996856;28;20026;-86
2021/03/05 02:30:17;;;;;;;23.63;11.03;;;4.90;91.80;;;;;;5032234;28;20014;-86
2021/03/05 02:32:55;;;;;;;23.20;11.80;;;4.90;91.70;;;;;;5031253;28;20034;-86
2021/03/05 02:35:25;;;;;;;20.87;10.90;;;4.60;92.10;;;;;;5031842;28;20402;-86
2021/03/05 02:37:52;;;;;;;;;;;4.70;91.90;;;;;;5033072;28;20095;-86
2021/03/05 02:40:25;;;;;;;21.47;11.47;;;4.60;91.90;;;;;;5029898;28;19905;-86
2021/03/05 02:42:56;;;;;;;19.63;11.20;;;4.70;92.10;;;;;;5031119;28;20037;-86
2021/03/05 02:45:27;;;;;;;19.70;10.93;;;4.80;91.80;;;;;;5031691;28;20485;-85
2021/03/05 02:48:01;;;;;;;21.77;11.63;;;4.80;92.10;;;;;;5031580;28;20028;-86
2021/03/05 02:50:30;;;;;;;21.63;11.90;;;4.80;91.60;;;;;;5030853;28;20561;-87
2021/03/05 02:52:59;;;;;;;19.50;11.25;;;4.70;91.40;;;;;;5031831;28;20589;-86
2021/03/05 02:55:26;;;;;;;24.13;11.35;;;4.80;91.50;;;;;;5031570;28;20034;-86
2021/03/05 02:58:04;;;;;;;18.53;11.10;;;4.80;91.60;;;;;;5033206;28;20026;-86
2021/03/05 03:00:34;;;;;;;18.50;11.40;;;4.70;91.60;;;;;;5048080;28;20363;-86
2021/03/05 03:03:00;;;;;;;;;;;4.80;91.60;;;;;;5031623;28;20025;-86
2021/03/05 03:05:29;;;;;;;20.30;10.27;;;4.80;91.40;;;;;;5030908;28;19952;-86
2021/03/05 03:07:56;;;;;;;16.88;9.88;;;4.80;91.70;;;;;;5031066;28;20026;-85
2021/03/05 03:10:25;;;;;;;19.77;10.77;;;4.70;91.30;;;;;;5030726;28;20053;-87
2021/03/05 03:12:56;;;;;;;18.05;9.70;;;4.60;91.20;;;;;;5032289;28;20025;-85
2021/03/05 03:15:26;;;;;;;17.90;10.33;;;4.60;91.30;;;;;;5030974;28;20589;-86
2021/03/05 03:17:53;;;;;;;19.60;9.90;;;4.50;91.30;;;;;;5031229;28;20075;-86
2021/03/05 03:20:21;;;;;;;17.33;9.67;;;4.60;91.00;;;;;;5031572;28;20181;-86
2021/03/05 03:22:48;;;;;;;16.53;9.90;;;4.50;90.90;;;;;;5030590;28;20103;-85
2021/03/05 03:25:15;;;;;;;17.07;9.30;;;4.60;90.90;;;;;;5030494;28;20488;-84
2021/03/05 03:27:42;;;;;;;14.70;9.37;;;4.60;90.60;;;;;;5030605;28;20056;-86
2021/03/05 03:30:13;;;;;;;16.03;9.97;;;4.70;90.50;;;;;;5029900;28;20028;-86
2021/03/05 03:32:39;;;;;;;15.60;9.20;;;4.60;90.40;;;;;;5031756;28;20082;-86
2021/03/05 03:35:08;;;;;;;13.60;8.20;;;4.50;90.10;;;;;;5030714;28;20337;-86
2021/03/05 03:37:34;;;;;;;14.13;8.33;;;4.70;90.30;;;;;;5030478;28;20169;-86
2021/03/05 03:40:04;;;;;;;14.87;8.27;;;4.70;89.40;;;;;;5030023;28;20038;-86
2021/03/05 03:42:30;;;;;;;15.93;9.17;;;4.60;89.60;;;;;;5030350;28;20075;-85
2021/03/05 03:44:56;;;;;;;15.53;8.97;;;4.70;89.50;;;;;;5030308;28;20022;-86
2021/03/05 03:47:23;;;;;;;14.87;8.70;;;4.60;90.20;;;;;;5030384;28;20026;-86
2021/03/05 03:49:56;;;;;;;14.93;8.73;;;4.50;90.30;;;;;;5031101;28;20044;-86
2021/03/05 03:52:45;;;;;;;14.47;8.37;;;4.60;90.20;;;;;;5032756;28;20099;-86
2021/03/05 03:55:12;;;;;;;13.27;7.65;;;4.30;90.10;;;;;;5035440;28;20035;-86
2021/03/05 03:57:45;;;;;;;13.53;7.77;;;4.40;90.10;;;;;;5034183;28;20052;-86
2021/03/05 04:00:13;;;;;;;13.50;7.77;;;4.20;90.00;;;;;;5032248;28;20018;-85
2021/03/05 04:02:40;;;;;;;14.10;7.27;;;4.10;89.90;;;;;;5033648;28;20022;-85
2021/03/05 04:05:15;;;;;;;13.93;7.17;;;4.00;90.10;;;;;;5034950;28;20028;-85
2021/03/05 04:07:43;;;;;;;10.87;5.53;;;3.90;90.20;;;;;;5033489;28;20030;-85
2021/03/05 04:10:10;;;;;;;10.83;5.50;;;3.80;89.90;;;;;;5034070;28;20494;-85
2021/03/05 04:12:37;;;;;;;11.03;5.83;;;3.90;89.10;;;;;;5034718;28;20087;-86
2021/03/05 04:15:03;;;;;;;9.73;4.77;;;4.00;89.30;;;;;;5033304;28;20053;-86
2021/03/05 04:17:29;;;;;;;8.27;4.57;;;4.10;88.40;;;;;;5033531;28;20044;-86
2021/03/05 04:19:55;;;;;;;8.53;4.30;;;4.20;85.90;;;;;;5034101;28;20025;-86
2021/03/05 04:22:22;;;;;;;6.90;3.60;;;4.20;84.80;;;;;;5033117;28;20033;-85
2021/03/05 04:24:48;;;;;;;6.43;3.30;;;4.00;85.60;;;;;;5034468;28;20053;-86
2021/03/05 04:27:14;;;;;;;8.63;3.27;;;3.60;85.60;;;;;;5034476;28;20056;-86
2021/03/05 04:29:39;;;;;;;6.10;3.07;;;3.60;84.70;;;;;;5032500;28;20145;-85
2021/03/05 04:32:05;;;;;;;6.23;2.93;;;3.60;84.10;;;;;;5032686;28;20028;-86
2021/03/05 04:34:32;;;;;;;5.63;3.20;;;3.60;84.20;;;;;;5033263;28;20108;-85
2021/03/05 04:36:57;;;;;;;6.40;2.63;;;3.60;83.30;;;;;;5033169;28;20030;-86
2021/03/05 04:39:23;;;;;;;7.03;2.80;;;3.70;83.40;;;;;;5034095;28;20021;-86
2021/03/05 04:41:49;;;;;;;6.83;2.97;;;3.70;83.20;;;;;;5033542;28;20463;-86
2021/03/05 04:44:15;;;;;;;5.07;2.27;;;3.70;82.80;;;;;;5032802;28;20065;-86
2021/03/05 04:46:41;;;;;;;6.30;3.10;;;3.70;83.80;;;;;;5032841;28;20115;-86
2021/03/05 04:49:07;;;;;;;6.70;2.80;;;3.70;82.50;;;;;;5048909;28;20057;-86
2021/03/05 04:51:32;;;;;;;5.20;2.97;;;3.80;83.20;;;;;;5032632;28;20053;-86
2021/03/05 04:53:58;;;;;;;5.83;3.10;;;3.80;82.30;;;;;;5033371;28;20036;-86
2021/03/05 04:56:24;;;;;;;6.10;3.17;;;3.60;82.90;;;;;;5033368;28;20116;-86
2021/03/05 04:58:50;;;;;;;6.63;3.00;;;3.40;82.90;;;;;;5032822;28;20036;-85
2021/03/05 05:01:15;;;;;;;6.20;2.80;;;3.40;84.20;;;;;;5034168;28;20100;-86
2021/03/05 05:03:41;;;;;;;6.00;2.90;;;3.50;84.10;;;;;;5033802;28;20294;-86
2021/03/05 05:06:07;;;;;;;8.30;3.10;;;3.30;84.00;;;;;;5032937;28;20021;-86
2021/03/05 05:08:32;;;;;;;6.70;3.10;;;3.30;84.30;;;;;;5034308;28;20021;-86
2021/03/05 05:10:58;;;;;;;6.00;2.80;;;3.20;84.00;;;;;;5032280;28;20121;-86
2021/03/05 05:13:24;;;;;;;5.77;2.87;;;3.30;84.20;;;;;;5034134;28;20028;-85
2021/03/05 05:15:50;;;;;;;8.40;3.10;;;3.20;84.00;;;;;;5032746;28;20041;-87
2021/03/05 05:18:15;;;;;;;8.33;3.43;;;3.20;82.90;;;;;;5032788;28;20475;-86
2021/03/05 05:20:41;;;;;;;5.80;2.87;;;3.30;84.10;;;;;;5031967;28;20030;-86
2021/03/05 05:23:08;;;;;;;7.07;3.13;;;3.40;83.80;;;;;;5033176;28;20029;-86
2021/03/05 05:25:33;;;;;;;6.03;2.90;;;3.30;82.60;;;;;;5032847;28;20059;-86
2021/03/05 05:27:59;;;;;;;5.93;2.57;;;3.10;82.60;;;;;;5033910;28;20030;-86
2021/03/05 05:30:25;;;;;;;8.93;3.10;;;2.80;83.20;;;;;;5033638;28;20148;-85
2021/03/05 05:32:50;;;;;;;5.13;2.67;;;2.90;83.70;;;;;;5032220;28;20564;-85
2021/03/05 05:35:17;;;;;;;5.43;2.90;;;2.80;83.90;;;;;;5032512;28;20037;-86
2021/03/05 05:37:42;;;;;;;8.37;2.97;;;2.90;83.50;;;;;;5031934;28;20033;-86
2021/03/05 05:40:09;;;;;;;7.07;2.90;;;2.90;84.10;;;;;;5031648;28;20021;-86
2021/03/05 05:42:34;;;;;;;7.73;3.33;;;3.00;83.40;;;;;;5033243;28;20025;-86
2021/03/05 05:45:00;;;;;;;11.10;3.33;;;3.10;82.90;;;;;;5033224;28;20470;-86
2021/03/05 05:47:29;;;;;;;5.67;2.40;;;3.10;82.70;;;;;;5033418;28;20473;-86
2021/03/05 05:50:01;;;;;;;7.82;2.80;;;3.10;82.20;;;;;;5031705;28;20072;-86
2021/03/05 05:52:30;;;;;;;6.87;2.70;;;3.10;82.50;;;;;;5031958;28;20037;-86
2021/03/05 05:54:56;;;;;;;6.78;2.65;;;3.10;81.80;;;;;;5032081;28;20030;-87
2021/03/05 05:57:27;;;;;;;4.67;2.40;;;2.90;82.20;;;;;;5032047;28;20044;-86
2021/03/05 05:59:53;;;;;;;6.10;2.30;;;2.90;81.70;;;;;;5031524;28;20026;-86
2021/03/05 06:02:19;;;;;;;7.23;2.87;;;2.90;81.90;;;;;;5031457;28;20382;-86
2021/03/05 06:04:45;;;;;;;5.40;2.40;;;2.90;81.60;;;;;;5033304;28;20021;-85
2021/03/05 06:07:12;;;;;;;6.87;2.67;;;2.70;82.70;;;;;;5033142;28;20124;-86
2021/03/05 06:09:38;;;;;;;8.00;2.47;;;2.60;82.20;;;;;;5032415;28;20033;-86
2021/03/05 06:12:14;;;;;;;6.57;2.30;;;2.60;81.60;;;;;;5031154;28;20026;-86
2021/03/05 06:14:44;;;;;;;7.67;2.33;;;2.50;82.60;;;;;;5032057;28;20041;-86
2021/03/05 06:17:10;;;;;;;7.97;2.33;;;2.60;82.20;;;;;;5034166;28;20053;-85
2021/03/05 06:19:36;;;;;;;7.73;2.67;;;2.70;82.10;;;;;;5032032;28;20032;-85
2021/03/05 06:22:16;;;;;;;5.10;2.33;;;2.80;81.40;;;;;;5033683;28;20059;-85
2021/03/05 06:24:43;;;;;;;9.27;2.57;;;2.70;82.00;;;;;;5033300;28;20029;-84
2021/03/05 06:27:10;;;;;;;7.07;2.43;;;2.90;81.70;;;;;;5032339;28;20091;-85
2021/03/05 06:29:47;;;;;;;6.03;2.70;;;2.80;82.10;;;;;;5033026;28;20055;-85
2021/03/05 06:32:16;;;;;;;8.33;3.30;;;2.90;81.70;;;;;;5034296;28;20053;-85
2021/03/05 06:34:49;;;;;;;6.55;2.30;;;2.90;81.20;;;;;;5032874;28;20052;-84
2021/03/05 06:37:16;;;;;;;6.37;2.50;;;2.70;81.40;;;;;;5033619;28;20060;-84
2021/03/05 06:39:42;;;;;;;7.30;2.47;;;2.60;82.50;;;;;;5032045;28;20032;-84
2021/03/05 06:42:15;;;;;;;7.97;2.37;;;2.70;82.50;;;;;;5033918;28;20040;-84
2021/03/05 06:44:42;;;;;;;5.67;2.27;;;2.70;82.20;;;;;;5032475;28;20026;-85
2021/03/05 06:47:12;;;;;;;6.30;2.40;;;2.70;81.70;;;;;;5031732;28;20032;-84
2021/03/05 06:49:38;;;;;;;;;;;2.50;82.40;;;;;;5033389;28;20022;-84
2021/03/05 06:52:04;;;;;;;8.07;2.97;;;2.50;82.90;;;;;;5033888;28;20103;-84
2021/03/05 06:54:33;;;;;;;5.47;2.57;;;2.70;82.40;;;;;;5033649;28;20038;-85
2021/03/05 06:56:59;;;;;;;6.68;2.20;;;2.70;82.70;;;;;;5035032;28;20613;-85
2021/03/05 06:59:25;;;;;;;6.57;2.23;;;2.60;82.50;;;;;;5034786;28;20065;-84
2021/03/05 07:01:55;;;;;;;8.00;2.37;;;2.60;82.30;;;;;;5034231;28;20494;-85
2021/03/05 07:04:23;;;;;;;7.23;2.30;;;2.70;81.70;;;;;;5033054;28;20548;-85
2021/03/05 07:07:04;;;;;;;6.30;2.20;;;2.60;82.30;;;;;;5034719;28;20536;-86
2021/03/05 07:09:36;;;;;;;5.97;2.00;;;2.60;81.70;;;;;;5032808;28;20028;-84
2021/03/05 07:12:14;;;;;;;5.40;1.90;;;2.40;82.70;;;;;;5035467;28;20120;-84
2021/03/05 07:14:44;;;;;;;7.97;2.43;;;2.50;82.50;;;;;;5031846;28;20499;-84
2021/03/05 07:17:10;;;;;;;8.57;2.37;;;2.50;82.40;;;;;;5039140;28;20018;-85
2021/03/05 07:19:37;;;;;;;7.57;2.00;;;2.60;81.80;;;;;;5034689;28;20025;-84
2021/03/05 07:22:05;;;;;;;6.10;1.93;;;2.60;81.70;;;;;;5035812;28;20044;-84
2021/03/05 07:24:32;;;;;;;9.10;2.00;;;2.60;82.00;;;;;;5036457;28;20030;-84
2021/03/05 07:27:00;;;;;;;9.60;2.40;;;2.50;81.60;;;;;;5035502;28;20029;-84
2021/03/05 07:29:45;;;;;;;9.90;2.13;;;2.40;82.30;;;;;;5037864;28;20056;-84
2021/03/05 07:32:11;;;;;;;5.50;2.23;;;2.50;82.50;;;;;;5035374;28;20268;-84
2021/03/05 07:34:43;;;;;;;9.80;2.10;;;2.40;82.80;;;;;;5036338;28;20470;-84
2021/03/05 07:37:12;;;;;;;14.23;2.40;;;2.50;82.50;;;;;;5035125;28;20036;-84
2021/03/05 07:39:50;;;;;;;12.52;2.03;;;2.60;83.00;;;;;;5034927;28;20037;-85
2021/03/05 07:42:17;;;;;;;5.80;1.90;;;2.70;82.30;;;;;;5034883;28;20037;-85
2021/03/05 07:44:45;;;;;;;6.30;1.93;;;2.80;83.20;;;;;;5035222;28;20375;-84
2021/03/05 07:47:15;;;;;;;6.70;1.80;;;2.90;81.80;;;;;;5035014;28;20394;-85
2021/03/05 07:49:42;;;;;;;4.77;1.73;;;2.90;82.00;;;;;;5035870;28;20045;-84
2021/03/05 07:52:09;;;;;;;4.83;1.73;;;2.80;81.80;;;;;;5035031;28;20029;-84
2021/03/05 07:54:54;;;;;;;8.20;1.83;;;2.80;82.00;;;;;;5036796;28;20049;-84
2021/03/05 07:57:19;;;;;;;5.50;1.80;;;2.80;82.40;;;;;;5035192;28;20032;-85
2021/03/05 07:59:50;;;;;;;4.97;1.70;;;2.90;81.40;;;;;;5034062;28;20096;-84
2021/03/05 08:02:17;;;;;;;6.20;1.80;;;3.00;81.80;;;;;;5034218;28;20506;-85
2021/03/05 08:04:52;;;;;;;6.97;1.83;;;3.00;81.90;;;;;;5034687;28;20090;-85
2021/03/05 08:07:23;;;;;;;7.00;1.60;;;2.90;82.00;;;;;;5036002;28;20079;-84
2021/03/05 08:09:49;;;;;;;4.83;1.70;;;3.00;80.80;;;;;;5034899;28;20554;-85
2021/03/05 08:12:31;;;;;;;3.83;1.43;;;3.10;81.00;;;;;;5034715;28;20029;-84
2021/03/05 08:15:09;;;;;;;5.00;1.60;;;3.10;81.50;;;;;;5033916;28;20116;-85
2021/03/05 08:17:42;;;;;;;7.83;1.87;;;3.00;80.70;;;;;;5034367;28;20512;-85
2021/03/05 08:20:29;;;;;;;5.27;1.40;;;3.10;80.70;;;;;;5034592;28;20426;-84
2021/03/05 08:23:02;;;;;;;4.63;1.50;;;3.10;80.10;;;;;;5035211;28;20042;-86
2021/03/05 08:25:28;;;;;;;6.17;1.33;;;3.10;79.80;;;;;;5036102;28;20490;-84
2021/03/05 08:27:55;;;;;;;7.13;1.57;;;2.90;81.30;;;;;;5035269;28;20045;-84
2021/03/05 08:30:33;;;;;;;5.60;1.60;;;3.00;81.30;;;;;;5034974;28;20091;-85
2021/03/05 08:33:09;;;;;;;4.23;1.50;;;3.10;80.70;;;;;;5035211;28;20084;-86
2021/03/05 08:35:36;;;;;;;6.43;1.80;;;3.10;80.70;;;;;;5035231;28;20048;-86
2021/03/05 08:38:40;;;;;;;4.73;1.90;;;3.10;80.70;;;;;;5035316;28;20049;-85
2021/03/05 08:41:15;;;;;;;7.80;1.50;;;3.20;80.20;;;;;;5034495;28;20433;-84
2021/03/05 08:43:41;;;;;;;7.10;1.80;;;3.10;80.10;;;;;;5035358;28;20540;-85
2021/03/05 08:46:09;;;;;;;5.30;1.40;;;3.30;80.20;;;;;;5035541;28;20022;-85
2021/03/05 08:48:37;;;;;;;6.33;1.57;;;3.40;79.00;;;;;;5035539;28;20026;-84
2021/03/05 08:51:06;;;;;;;12.00;1.77;;;3.40;78.70;;;;;;5034687;28;20021;-86
2021/03/05 08:53:38;;;;;;;5.27;1.53;;;3.50;78.60;;;;;;5035217;28;20030;-85
2021/03/05 08:56:04;;;;;;;4.00;1.30;;;3.40;79.30;;;;;;5036672;28;20105;-85
2021/03/05 08:58:29;;;;;;;7.23;1.60;;;3.50;79.30;;;;;;5035124;28;20064;-85
2021/03/05 09:00:55;;;;;;;6.50;1.53;;;3.40;78.70;;;;;;5036069;28;20029;-85
2021/03/05 09:03:20;;;;;;;5.43;1.67;;;3.40;76.70;;;;;;5034998;28;20395;-85
2021/03/05 09:05:48;;;;;;;7.53;1.53;;;3.40;76.80;;;;;;5036313;28;20391;-85
2021/03/05 09:08:16;;;;;;;10.23;1.80;;;3.50;77.40;;;;;;5036816;28;20025;-85
2021/03/05 09:10:49;;;;;;;5.33;1.17;;;3.60;77.80;;;;;;5035323;28;20104;-85
2021/03/05 09:13:24;;;;;;;5.03;1.47;;;3.70;75.30;;;;;;5035085;28;20270;-85
2021/03/05 09:16:01;;;;;;;4.00;1.27;;;3.80;74.50;;;;;;5036731;28;20041;-85
2021/03/05 09:18:29;;;;;;;6.97;1.47;;;3.90;73.90;;;;;;5035747;28;20116;-85
2021/03/05 09:21:01;;;;;;;12.75;2.25;;;3.80;73.90;;;;;;5035464;28;20029;-85
2021/03/05 09:23:36;;;;;;;5.60;1.50;;;3.90;74.30;;;;;;5035726;28;20025;-86
2021/03/05 09:26:17;;;;;;;8.03;1.70;;;4.00;73.60;;;;;;5035828;28;20401;-85
2021/03/05 09:28:43;;;;;;;8.63;2.30;;;4.00;73.00;;;;;;5035514;28;20025;-85
2021/03/05 09:31:11;;;;;;;8.33;1.73;;;4.00;73.40;;;;;;5034569;28;20021;-85
2021/03/05 09:33:38;;;;;;;9.90;2.03;;;4.00;72.10;;;;;;5034638;28;20029;-85
2021/03/05 09:36:10;;;;;;;5.13;1.53;;;4.10;72.60;;;;;;5034967;28;20080;-85
2021/03/05 09:38:37;;;;;;;9.77;1.90;;;4.20;73.10;;;;;;5036643;28;20029;-85
2021/03/05 09:41:14;;;;;;;3.80;1.27;;;4.20;72.60;;;;;;5034471;28;20124;-85
2021/03/05 09:43:40;;;;;;;5.50;1.23;;;4.20;70.50;;;;;;5032605;28;20021;-85
2021/03/05 09:46:23;;;;;;;9.13;1.40;;;4.20;69.70;;;;;;5032415;28;20021;-85
2021/03/05 09:48:53;;;;;;;5.23;1.30;;;4.20;70.90;;;;;;5031528;28;20021;-85
2021/03/05 09:51:19;;;;;;;7.43;1.20;;;4.30;70.60;;;;;;5032468;28;20038;-86
2021/03/05 09:53:56;;;;;;;4.03;1.10;;;4.10;67.30;;;;;;5032157;28;20120;-85
2021/03/05 09:56:27;;;;;;;7.27;1.20;;;4.10;67.90;;;;;;5032031;28;20025;-84
2021/03/05 09:58:57;;;;;;;5.33;1.23;;;4.00;67.60;;;;;;5031577;28;20031;-87
2021/03/05 10:01:26;;;;;;;4.03;1.83;;;4.10;67.70;;;;;;5032533;28;20052;-85
2021/03/05 10:03:57;;;;;;;3.30;1.17;;;4.20;68.20;;;;;;5037505;28;20025;-85
2021/03/05 10:06:23;;;;;;;4.30;1.40;;;4.20;67.40;;;;;;5037013;28;20033;-85
2021/03/05 10:09:02;;;;;;;7.13;1.40;;;4.30;67.50;;;;;;5036961;28;20487;-86
2021/03/05 10:11:38;;;;;;;6.00;1.20;;;4.30;67.50;;;;;;5037058;28;20521;-85
2021/03/05 10:14:06;;;;;;;4.60;1.37;;;4.40;67.80;;;;;;5039207;28;20033;-85
2021/03/05 10:16:37;;;;;;;3.90;1.30;;;4.40;67.00;;;;;;5037013;28;20608;-85
2021/03/05 10:19:08;;;;;;;3.23;0.93;;;4.50;65.90;;;;;;5037387;28;20079;-85
2021/03/05 10:21:39;;;;;;;5.77;1.77;;;4.50;64.90;;;;;;5037203;28;20025;-85
2021/03/05 10:24:07;;;;;;;5.60;1.63;;;4.50;64.70;;;;;;5036519;28;20040;-85
2021/03/05 10:26:33;;;;;;;4.03;1.20;;;4.50;65.10;;;;;;5036513;28;20429;-85
2021/03/05 10:29:05;;;;;;;3.07;0.93;;;4.60;64.90;;;;;;5036286;28;20045;-85
2021/03/05 10:31:49;;;;;;;4.00;1.10;;;4.60;64.50;;;;;;5036528;28;20032;-85
2021/03/05 10:34:28;;;;;;;2.93;1.00;;;4.60;63.50;;;;;;5037126;28;20025;-85
2021/03/05 10:37:00;;;;;;;3.67;0.93;;;4.70;63.30;;;;;;5038500;28;20022;-85
2021/03/05 10:39:27;;;;;;;4.27;0.83;;;4.60;61.00;;;;;;5036572;28;20029;-85
2021/03/05 10:41:59;;;;;;;3.47;1.10;;;4.60;60.10;;;;;;5038255;28;20037;-85
2021/03/05 10:44:27;;;;;;;2.30;0.67;;;4.50;62.00;;;;;;5037322;28;20120;-85
2021/03/05 10:46:55;;;;;;;3.23;0.70;;;4.40;60.60;;;;;;5036489;28;20025;-85
2021/03/05 10:49:21;;;;;;;4.40;0.80;;;4.50;59.80;;;;;;5036493;28;20033;-85
2021/03/05 10:51:46;;;;;;;3.23;0.83;;;4.60;58.70;;;;;;5037571;28;20615;-85
2021/03/05 10:54:12;;;;;;;2.57;0.77;;;4.60;59.70;;;;;;5035659;28;20053;-85
2021/03/05 10:56:38;;;;;;;4.13;0.93;;;4.60;56.30;;;;;;5036592;28;20064;-85
2021/03/05 10:59:04;;;;;;;2.40;0.80;;;4.60;57.30;;;;;;5036368;28;20088;-85
2021/03/05 11:01:29;;;;;;;3.47;1.10;;;4.60;56.60;;;;;;5039181;28;20087;-85
2021/03/05 11:03:55;;;;;;;4.87;1.17;;;4.60;57.10;;;;;;5040615;28;20029;-85
2021/03/05 11:06:20;;;;;;;5.70;0.83;;;4.70;57.50;;;;;;5040665;28;20096;-85
2021/03/05 11:08:46;;;;;;;1.37;0.70;;;4.70;57.30;;;;;;5040496;28;20030;-85
2021/03/05 11:11:12;;;;;;;3.37;1.00;;;4.60;58.50;;;;;;5040869;28;20037;-85
2021/03/05 11:13:37;;;;;;;1.90;0.80;;;4.80;57.50;;;;;;5042284;28;20041;-85
2021/03/05 11:16:03;;;;;;;3.47;0.70;;;4.80;57.60;;;;;;5040839;28;20044;-85
2021/03/05 11:18:29;;;;;;;4.10;0.90;;;4.80;55.90;;;;;;5042876;28;20031;-85
2021/03/05 11:20:55;;;;;;;1.17;0.63;;;4.80;56.20;;;;;;5040039;28;20035;-85
2021/03/05 11:23:20;;;;;;;2.17;0.67;;;4.90;56.70;;;;;;5040438;28;20095;-85
2021/03/05 11:25:46;;;;;;;3.43;1.30;;;5.00;57.60;;;;;;5040294;28;20022;-85
2021/03/05 11:28:14;;;;;;;1.27;0.60;;;5.00;57.50;;;;;;5041019;28;20055;-85
2021/03/05 11:30:40;;;;;;;2.37;0.70;;;5.00;56.70;;;;;;5041307;28;20022;-85
2021/03/05 11:33:06;;;;;;;3.97;0.77;;;5.00;55.20;;;;;;5040427;28;20116;-85
2021/03/05 11:35:31;;;;;;;2.80;0.77;;;5.00;54.30;;;;;;5041026;28;20069;-85
2021/03/05 11:37:57;;;;;;;2.10;0.70;;;5.00;54.30;;;;;;5040518;28;20029;-85
2021/03/05 11:40:23;;;;;;;3.53;0.77;;;5.00;53.60;;;;;;5039847;28;20025;-85
2021/03/05 11:42:48;;;;;;;2.20;0.80;;;5.00;54.50;;;;;;5040141;28;20502;-85
2021/03/05 11:45:15;;;;;;;2.90;0.70;;;5.10;55.90;;;;;;5040841;28;20025;-85
2021/03/05 11:47:41;;;;;;;3.80;0.70;;;5.20;56.60;;;;;;5040075;28;20756;-85
2021/03/05 11:50:07;;;;;;;2.87;0.90;;;5.10;55.70;;;;;;5041820;28;20029;-84
2021/03/05 11:52:33;;;;;;;3.87;0.70;;;5.20;56.40;;;;;;5042655;28;20025;-85
2021/03/05 11:55:00;;;;;;;2.57;0.90;;;5.10;55.50;;;;;;5041659;28;20036;-85
2021/03/05 11:57:26;;;;;;;3.30;0.80;;;5.10;56.10;;;;;;5041943;28;20041;-85
2021/03/05 11:59:52;;;;;;;6.00;1.10;;;5.20;55.90;;;;;;5043210;28;20441;-85
2021/03/05 12:02:17;;;;;;;5.60;0.80;;;5.10;54.70;;;;;;5041893;28;20069;-85
2021/03/05 12:04:43;;;;;;;4.53;0.70;;;5.20;55.40;;;;;;5042828;28;20570;-85
2021/03/05 12:07:09;;;;;;;2.30;0.87;;;5.20;53.10;;;;;;5043437;28;20418;-85
2021/03/05 12:09:34;;;;;;;2.47;0.80;;;5.20;54.70;;;;;;5043679;28;20026;-85
2021/03/05 12:12:00;;;;;;;2.00;0.70;;;5.30;53.70;;;;;;5040254;28;20037;-85
2021/03/05 12:14:26;;;;;;;2.43;0.77;;;5.30;53.30;;;;;;5063458;22;20033;-86
2021/03/05 12:16:51;;;;;;;3.37;1.10;;;5.30;52.80;;;;;;5033518;28;20039;-85
2021/03/05 12:19:17;;;;;;;1.90;0.73;;;5.30;52.40;;;;;;5034915;28;20022;-85
2021/03/05 12:21:42;;;;;;;3.37;0.80;;;5.30;53.00;;;;;;5034521;28;20052;-85
2021/03/05 12:24:08;;;;;;;3.27;1.23;;;5.30;52.30;;;;;;5034544;28;20033;-85
2021/03/05 12:26:34;;;;;;;4.03;0.90;;;5.30;51.50;;;;;;5034152;28;20022;-85
2021/03/05 12:29:00;;;;;;;3.17;1.20;;;5.40;51.70;;;;;;5035025;28;20438;-85
2021/03/05 12:31:25;;;;;;;1.77;0.73;;;5.40;50.70;;;;;;5035726;28;20247;-85
2021/03/05 12:33:51;;;;;;;2.83;0.90;;;5.40;51.10;;;;;;5034174;28;20507;-85
2021/03/05 12:36:17;;;;;;;2.57;0.90;;;5.40;51.40;;;;;;5035545;28;20072;-85
2021/03/05 12:38:44;;;;;;;2.43;0.70;;;5.40;50.30;;;;;;5034216;28;20124;-85
2021/03/05 12:41:10;;;;;;;2.77;0.80;;;5.50;49.40;;;;;;5033521;28;20029;-86
2021/03/05 12:43:35;;;;;;;2.97;1.00;;;5.50;49.10;;;;;;5035926;28;20071;-85
2021/03/05 12:46:01;;;;;;;2.43;0.70;;;5.50;47.90;;;;;;5034223;28;20017;-85
2021/03/05 12:48:27;;;;;;;2.43;0.90;;;5.50;47.70;;;;;;5035244;28;20032;-85
2021/03/05 12:50:53;;;;;;;1.70;0.70;;;5.50;47.30;;;;;;5035064;28;20048;-85
2021/03/05 12:53:19;;;;;;;3.20;1.00;;;5.60;48.00;;;;;;5034076;28;20482;-86
2021/03/05 12:55:45;;;;;;;3.00;0.80;;;5.60;47.40;;;;;;5034708;28;20596;-85
2021/03/05 12:58:11;;;;;;;1.90;0.63;;;5.60;46.40;;;;;;5036508;28;20029;-85
2021/03/05 13:00:36;;;;;;;3.67;1.00;;;5.60;44.50;;;;;;5033939;28;20036;-85